Friday, January 18, 2019, 3:21 AM EST
Back to Local

KRME, Griffiss Airfield

Location: Rome, NY, United States Lat: 43.233
Local Time: 3:21 AM EST ( 8:21 GMT) Lon: -75.4
Time Zone: US/Eastern Elev: 505 ft

Show me the last for .
Show Decoded

2019-01-18 02:53 METAR KRME 180753Z AUTO 10007KT 10SM OVC025 M06/M10 A3009 RMK AO2 SLP196
                 T10611100 =
2019-01-18 02:10 METAR KRME 180710Z AUTO 09007KT 10SM BKN028 OVC049 M07/M10 A3010 RMK AO2
                 T10671100 =
2019-01-18 01:53 METAR KRME 180653Z AUTO 10008KT 10SM FEW029 OVC049 M07/M10 A3010 RMK AO2 SLP199
                 T10671100 =
2019-01-18 00:53 METAR KRME 180553Z AUTO 12010KT 10SM OVC047 M06/M10 A3011 RMK AO2 SLP202
                 T10561100 11056 21078 58021 =
2019-01-17 23:53 METAR KRME 180453Z AUTO 11009KT 10SM OVC043 M06/M12 A3014 RMK AO2 SLP212
                 T10561122 410561172 =
2019-01-17 22:53 METAR KRME 180353Z AUTO 10007KT 10SM OVC044 M07/M14 A3016 RMK AO2 SLP219
                 T10671139 =
2019-01-17 21:53 METAR KRME 180253Z AUTO 10008KT 10SM OVC031 M07/M14 A3017 RMK AO2 SLP226
                 T10671144 56021 =
2019-01-17 20:53 METAR KRME 180153Z 10008KT 10SM OVC047 M07/M15 A3019 RMK AO2 SLP231 T10721150 =
2019-01-17 19:53 METAR KRME 180053Z 11008KT 10SM CLR M07/M15 A3021 RMK AO2 SLP240 T10721150 =
2019-01-17 18:53 METAR KRME 172353Z 11006KT 10SM FEW120 M08/M16 A3023 RMK AO2 SLP248 T10781156
                 11061 21083 56015 =
2019-01-17 17:53 METAR KRME 172253Z 10006KT 10SM SCT110 M07/M17 A3024 RMK AO2 SLP250 T10721167 =
2019-01-17 16:53 METAR KRME 172153Z 09006KT 10SM BKN110 M07/M17 A3025 RMK AO2 SLP254 T10671167 =
2019-01-17 15:53 METAR KRME 172053Z 12005KT 10SM OVC120 M07/M17 A3028 RMK AO2 SLP262 T10671167
                 56025 =
2019-01-17 14:53 METAR KRME 171953Z 10003KT 10SM CLR M07/M16 A3030 RMK AO2 SLP268 T10671161 =
2019-01-17 13:53 METAR KRME 171853Z VRB03KT 10SM CLR M08/M16 A3031 RMK AO2 SLP273 T10781156 =
2019-01-17 12:53 METAR KRME 171753Z 00000KT 10SM CLR M08/M16 A3035 RMK AO2 SLP287 T10831161 11083
                 21172 58028 =
2019-01-17 11:53 METAR KRME 171653Z 00000KT 10SM CLR M09/M17 A3039 RMK AO2 SLP300 T10941167 =
2019-01-17 10:53 METAR KRME 171553Z 09004KT 10SM CLR M11/M18 A3044 RMK AO2 SLP315 T11111183 =
2019-01-17 09:53 METAR KRME 171453Z 11006KT 10SM CLR M13/M19 A3044 RMK AO2 SLP316 T11331189 51001
                 =
2019-01-17 08:53 METAR KRME 171353Z 12005KT 10SM CLR M16/M19 A3044 RMK AO2 SLP316 T11561194 =
2019-01-17 07:53 METAR KRME 171253Z 00000KT 10SM CLR M17/M20 A3044 RMK AO2 SLP317 T11671200 =
2019-01-17 06:53 METAR KRME 171153Z 00000KT 10SM CLR M17/M19 A3043 RMK AO2 SLP315 T11671194 11128
                 21172 53015 =
2019-01-17 05:53 METAR KRME 171053Z AUTO 00000KT 10SM CLR M17/M19 A3040 RMK AO2 SLP304 T11671194
                 =
2019-01-17 04:53 METAR KRME 170953Z AUTO 00000KT 10SM CLR M16/M19 A3039 RMK AO2 SLP300 T11611189
                 =
2019-01-17 03:53 METAR KRME 170853Z AUTO 00000KT 10SM CLR M15/M19 A3039 RMK AO2 SLP298 T11501189
                 53012 =

Support USWX by starting your Amazon purchase here.